| time (UTC) | temp F | wind direction | speed knots | gust knots | rain 1hr in | rain 24hr in | rain mn in | humidity % | barometer mb |
| 20260502200022 | 66 | 268 | 14.8 | 20.0 | 0.00 | 0.00 | 0.00 | 29 | 1012.7 |
| 20260502195520 | 66 | 264 | 18.2 | 24.3 | 0.00 | 0.00 | 0.00 | 29 | 1012.4 |
| 20260502195015 | 65 | 223 | 7.8 | 13.9 | 0.00 | 0.00 | 0.00 | 30 | 1012.8 |
| 20260502194512 | 66 | 227 | 14.8 | 20.9 | 0.00 | 0.00 | 0.00 | 28 | 1012.8 |
| 20260502194008 | 65 | 213 | 10.4 | 15.6 | 0.00 | 0.00 | 0.00 | 29 | 1012.7 |
| 20260502193506 | 65 | 241 | 10.4 | 11.3 | 0.00 | 0.00 | 0.00 | 30 | 1013.1 |
| 20260502193002 | 65 | 227 | 18.2 | 20.0 | 0.00 | 0.00 | 0.00 | 31 | 1012.9 |
| 20260502192458 | 64 | 232 | 9.6 | 19.1 | 0.00 | 0.00 | 0.00 | 30 | 1013.2 |
| 20260502191955 | 64 | 242 | 8.7 | 16.5 | 0.00 | 0.00 | 0.00 | 30 | 1013.4 |
| 20260502191453 | 63 | 287 | 5.2 | 11.3 | 0.00 | 0.00 | 0.00 | 30 | 1013.4 |
| 20260502190950 | 64 | 218 | 11.3 | 17.4 | 0.00 | 0.00 | 0.00 | 30 | 1013.5 |
| 20260502190448 | 64 | 224 | 13.0 | 15.6 | 0.00 | 0.00 | 0.00 | 31 | 1013.6 |
| 20260502185944 | 64 | 292 | 11.3 | 18.2 | 0.00 | 0.00 | 0.00 | 30 | 1013.9 |
| 20260502185439 | 63 | 212 | 9.6 | 12.2 | 0.00 | 0.00 | 0.00 | 30 | 1013.8 |
| 20260502184936 | 63 | 253 | 13.0 | 21.7 | 0.00 | 0.00 | 0.00 | 31 | 1013.8 |
| 20260502184431 | 62 | 210 | 6.1 | 19.1 | 0.00 | 0.00 | 0.00 | 30 | 1014.1 |
| 20260502183928 | 62 | 243 | 15.6 | 22.6 | 0.00 | 0.00 | 0.00 | 31 | 1013.9 |
| 20260502183425 | 63 | 227 | 14.8 | 21.7 | 0.00 | 0.00 | 0.00 | 29 | 1014.0 |
| 20260502182920 | 62 | 229 | 9.6 | 18.2 | 0.00 | 0.00 | 0.00 | 30 | 1014.3 |
| 20260502182416 | 62 | 228 | 13.9 | 19.1 | 0.00 | 0.00 | 0.00 | 33 | 1014.2 |
| 20260502181912 | 62 | 241 | 7.8 | 11.3 | 0.00 | 0.00 | 0.00 | 30 | 1014.6 |
| 20260502181411 | 61 | 257 | 8.7 | 14.8 | 0.00 | 0.00 | 0.00 | 33 | 1014.6 |
| 20260502180909 | 61 | 244 | 14.8 | 20.0 | 0.00 | 0.00 | 0.00 | 32 | 1014.3 |
| 20260502180406 | 61 | 206 | 7.8 | 11.3 | 0.00 | 0.00 | 0.00 | 31 | 1014.7 |
| 20260502170330 | 58 | 275 | 6.1 | 10.4 | 0.00 | 0.00 | 0.00 | 32 | 1015.8 |
| 20260502164318 | 57 | 258 | 13.9 | 15.6 | 0.00 | 0.00 | 0.00 | 35 | 1016.1 |
| 20260502163813 | 57 | 271 | 8.7 | 17.4 | 0.00 | 0.00 | 0.00 | 34 | 1016.1 |
| 20260502163310 | 57 | 235 | 11.3 | 13.0 | 0.00 | 0.00 | 0.00 | 34 | 1016.4 |
| 20260502162808 | 57 | 265 | 11.3 | 18.2 | 0.00 | 0.00 | 0.00 | 34 | 1016.1 |
| 20260502162305 | 57 | 227 | 14.8 | 17.4 | 0.00 | 0.00 | 0.00 | 34 | 1016.5 |
| 20260502161800 | 56 | 222 | 13.0 | 20.0 | 0.00 | 0.00 | 0.00 | 34 | 1016.5 |
| 20260502161257 | 56 | 224 | 13.9 | 16.5 | 0.00 | 0.00 | 0.00 | 36 | 1016.4 |
| 20260502160755 | 56 | 222 | 11.3 | 16.5 | 0.00 | 0.00 | 0.00 | 34 | 1016.5 |
| 20260502160254 | 55 | 242 | 12.2 | 17.4 | 0.00 | 0.00 | 0.00 | 36 | 1016.6 |
| 20260502152229 | 53 | 247 | 8.7 | 14.8 | 0.00 | 0.00 | 0.00 | 37 | 1017.0 |
| 20260502151727 | 53 | 234 | 11.3 | 15.6 | 0.00 | 0.00 | 0.00 | 39 | 1017.2 |
| 20260502151223 | 53 | 245 | 11.3 | 17.4 | 0.00 | 0.00 | 0.00 | 38 | 1017.1 |
| 20260502150721 | 53 | 230 | 17.4 | 17.4 | 0.00 | 0.00 | 0.00 | 40 | 1017.2 |
| 20260502150217 | 53 | 242 | 12.2 | 14.8 | 0.00 | 0.00 | 0.00 | 41 | 1017.2 |
| 20260502130606 | 42 | 257 | 9.6 | 10.4 | 0.00 | 0.00 | 0.00 | 63 | 1017.5 |
| 20260502130104 | 42 | 249 | 7.8 | 9.6 | 0.00 | 0.00 | 0.00 | 64 | 1017.6 |
| 20260502123549 | 39 | 240 | 4.3 | 6.1 | 0.00 | 0.00 | 0.00 | 70 | 1017.5 |
| 20260502123045 | 39 | 250 | 4.3 | 4.3 | 0.00 | 0.00 | 0.00 | 71 | 1017.6 |
| 20260502122542 | 38 | 241 | 3.5 | 3.5 | 0.00 | 0.00 | 0.00 | 73 | 1017.6 |
| 20260502122039 | 37 | 256 | 3.5 | 4.3 | 0.00 | 0.00 | 0.00 | 73 | 1017.8 |
| 20260502121537 | 36 | 259 | 2.6 | 2.6 | 0.00 | 0.00 | 0.00 | 74 | 1017.6 |
| 20260502121034 | 36 | 253 | 1.7 | 2.6 | 0.00 | 0.00 | 0.00 | 75 | 1017.6 |
| 20260502120530 | 35 | 260 | 1.7 | 3.5 | 0.00 | 0.00 | 0.00 | 75 | 1017.7 |
| 20260502115525 | 34 | 266 | 2.6 | 3.5 | 0.00 | 0.00 | 0.00 | 76 | 1017.6 |
| 20260502115021 | 34 | 262 | 2.6 | 2.6 | 0.00 | 0.00 | 0.00 | 76 | 1017.3 |
| 20260502114518 | 34 | 260 | 3.5 | 3.5 | 0.00 | 0.00 | 0.00 | 75 | 1017.5 |
| 20260502114014 | 33 | 263 | 2.6 | 3.5 | 0.00 | 0.00 | 0.00 | 76 | 1017.8 |
| 20260502113512 | 33 | 254 | 3.5 | 3.5 | 0.00 | 0.00 | 0.00 | 76 | 1017.5 |
| 20260502113011 | 33 | 253 | 3.5 | 3.5 | 0.00 | 0.00 | 0.00 | 76 | 1017.5 |
| 20260502112508 | 33 | 261 | 2.6 | 3.5 | 0.00 | 0.00 | 0.00 | 77 | 1017.5 |
| 20260502112005 | 33 | 249 | 2.6 | 3.5 | 0.00 | 0.00 | 0.00 | 76 | 1017.8 |
| 20260502111503 | 33 | 254 | 3.5 | 3.5 | 0.00 | 0.00 | 0.00 | 76 | 1017.9 |
| 20260502111000 | 33 | 256 | 3.5 | 3.5 | 0.00 | 0.00 | 0.00 | 76 | 1017.7 |
| 20260502110457 | 33 | 258 | 3.5 | 4.3 | 0.00 | 0.00 | 0.00 | 76 | 1017.7 |
| 20260502105955 | 33 | 255 | 3.5 | 4.3 | 0.00 | 0.00 | 0.00 | 75 | 1017.7 |
| 20260502105452 | 33 | 255 | 3.5 | 4.3 | 0.00 | 0.00 | 0.00 | 75 | 1017.6 |
| 20260502104950 | 33 | 256 | 4.3 | 4.3 | 0.00 | 0.00 | 0.00 | 74 | 1017.8 |
| 20260502104447 | 33 | 264 | 3.5 | 3.5 | 0.00 | 0.00 | 0.00 | 75 | 1017.8 |
| 20260502103944 | 33 | 260 | 2.6 | 3.5 | 0.00 | 0.00 | 0.00 | 74 | 1017.9 |
| 20260502103441 | 33 | 259 | 3.5 | 3.5 | 0.00 | 0.00 | 0.00 | 75 | 1017.7 |
| 20260502102938 | 33 | 260 | 2.6 | 2.6 | 0.00 | 0.00 | 0.00 | 75 | 1018.1 |
| 20260502102435 | 33 | 258 | 2.6 | 5.2 | 0.00 | 0.00 | 0.00 | 74 | 1018.1 |
| 20260502101932 | 33 | 259 | 4.3 | 5.2 | 0.00 | 0.00 | 0.00 | 74 | 1017.9 |
| 20260502101431 | 33 | 266 | 3.5 | 4.3 | 0.00 | 0.00 | 0.00 | 73 | 1018.1 |
| 20260502100928 | 34 | 264 | 3.5 | 4.3 | 0.00 | 0.00 | 0.00 | 73 | 1018.1 |
| 20260502100427 | 33 | 265 | 3.5 | 4.3 | 0.00 | 0.00 | 0.00 | 74 | 1018.1 |
| 20260502091401 | 34 | 258 | 2.6 | 4.3 | 0.00 | 0.00 | 0.00 | 73 | 1017.6 |
| 20260502090859 | 34 | 249 | 3.5 | 4.3 | 0.00 | 0.00 | 0.00 | 72 | 1017.8 |
| 20260502090355 | 35 | 254 | 3.5 | 4.3 | 0.00 | 0.00 | 0.00 | 71 | 1017.7 |
| 20260502071250 | 35 | 255 | 3.5 | 3.5 | 0.00 | 0.00 | 0.00 | 71 | 1017.7 |
| 20260502070748 | 35 | 256 | 2.6 | 3.5 | 0.00 | 0.00 | 0.00 | 70 | 1017.8 |
| 20260502070245 | 35 | 248 | 3.5 | 4.3 | 0.00 | 0.00 | 0.00 | 70 | 1017.9 |
| 20260502065744 | 35 | 248 | 5.2 | 5.2 | 0.00 | 0.00 | 0.00 | 71 | 1018.1 |
| 20260502065242 | 35 | 246 | 3.5 | 3.5 | 0.00 | 0.00 | 0.00 | 70 | 1018.2 |
| 20260502064740 | 35 | 257 | 5.2 | 5.2 | 0.00 | 0.00 | 0.00 | 70 | 1018.1 |
| 20260502064238 | 35 | 251 | 3.5 | 4.3 | 0.00 | 0.00 | 0.00 | 70 | 1018.1 |
| 20260502063735 | 36 | 246 | 3.5 | 4.3 | 0.00 | 0.00 | 0.00 | 69 | 1018.3 |
| 20260502063233 | 36 | 250 | 4.3 | 5.2 | 0.00 | 0.00 | 0.00 | 68 | 1018.1 |
| 20260502062730 | 36 | 251 | 3.5 | 5.2 | 0.00 | 0.00 | 0.00 | 69 | 1018.3 |
| 20260502062227 | 35 | 247 | 4.3 | 4.3 | 0.00 | 0.00 | 0.00 | 69 | 1018.2 |
| 20260502061726 | 36 | 250 | 4.3 | 5.2 | 0.00 | 0.00 | 0.00 | 66 | 1018.4 |
| 20260502061223 | 36 | 244 | 3.5 | 3.5 | 0.00 | 0.00 | 0.00 | 66 | 1018.3 |
| 20260502060718 | 36 | 239 | 3.5 | 3.5 | 0.00 | 0.00 | 0.00 | 66 | 1018.1 |
| 20260502060214 | 36 | 245 | 3.5 | 3.5 | 0.00 | 0.00 | 0.00 | 66 | 1018.1 |
| 20260502055712 | 36 | 246 | 3.5 | 4.3 | 0.00 | 0.00 | 0.00 | 66 | 1018.1 |
| 20260502055209 | 37 | 253 | 4.3 | 5.2 | 0.00 | 0.00 | 0.00 | 65 | 1017.9 |
| 20260502054709 | 37 | 261 | 3.5 | 4.3 | 0.00 | 0.00 | 0.00 | 64 | 1018.3 |
| 20260502054206 | 37 | 249 | 3.5 | 4.3 | 0.00 | 0.00 | 0.00 | 64 | 1018.5 |
| 20260502053703 | 37 | 253 | 3.5 | 4.3 | 0.00 | 0.00 | 0.00 | 64 | 1017.9 |
| 20260502053200 | 37 | 255 | 3.5 | 3.5 | 0.00 | 0.00 | 0.00 | 64 | 1018.4 |
| 20260502052658 | 37 | 252 | 3.5 | 3.5 | 0.00 | 0.00 | 0.00 | 64 | 1018.2 |
| 20260502052156 | 37 | 239 | 3.5 | 3.5 | 0.00 | 0.00 | 0.00 | 64 | 1018.3 |
| 20260502051654 | 37 | 249 | 3.5 | 4.3 | 0.00 | 0.00 | 0.00 | 64 | 1018.3 |
| 20260502051152 | 37 | 241 | 3.5 | 3.5 | 0.00 | 0.00 | 0.00 | 64 | 1018.2 |
| 20260502050648 | 37 | 244 | 5.2 | 5.2 | 0.00 | 0.00 | 0.00 | 64 | 1018.2 |
| 20260502050145 | 37 | 251 | 3.5 | 4.3 | 0.00 | 0.00 | 0.00 | 63 | 1018.3 |
| 20260502045641 | 37 | 251 | 3.5 | 3.5 | 0.00 | 0.00 | 0.00 | 63 | 1017.9 |
| 20260502045139 | 38 | 255 | 3.5 | 4.3 | 0.00 | 0.00 | 0.00 | 62 | 1018.1 |
| 20260502044635 | 38 | 261 | 3.5 | 3.5 | 0.00 | 0.00 | 0.00 | 62 | 1018.1 |
| 20260502044131 | 38 | 265 | 3.5 | 3.5 | 0.00 | 0.00 | 0.00 | 63 | 1018.1 |
| 20260502043630 | 37 | 257 | 2.6 | 3.5 | 0.00 | 0.00 | 0.00 | 65 | 1018.1 |
| 20260502043127 | 37 | 253 | 1.7 | 2.6 | 0.00 | 0.00 | 0.00 | 64 | 1018.3 |
| 20260502042626 | 38 | 259 | 1.7 | 2.6 | 0.00 | 0.00 | 0.00 | 63 | 1018.1 |
| 20260502042124 | 38 | 255 | 2.6 | 2.6 | 0.00 | 0.00 | 0.00 | 63 | 1018.3 |
| 20260502041621 | 38 | 258 | 2.6 | 2.6 | 0.00 | 0.00 | 0.00 | 61 | 1018.3 |
| 20260502041118 | 39 | 258 | 2.6 | 2.6 | 0.00 | 0.00 | 0.00 | 61 | 1018.2 |
| 20260502040615 | 39 | 269 | 2.6 | 2.6 | 0.00 | 0.00 | 0.00 | 61 | 1017.8 |
| 20260502040112 | 39 | 269 | 2.6 | 2.6 | 0.00 | 0.00 | 0.00 | 60 | 1018.2 |
| 20260502035608 | 39 | 267 | 2.6 | 3.5 | 0.00 | 0.00 | 0.00 | 59 | 1018.2 |
| 20260502035105 | 39 | 274 | 2.6 | 2.6 | 0.00 | 0.00 | 0.00 | 60 | 1018.2 |
| 20260502034603 | 38 | 271 | 2.6 | 3.5 | 0.00 | 0.00 | 0.00 | 61 | 1018.2 |
| 20260502034101 | 38 | 269 | 2.6 | 3.5 | 0.00 | 0.00 | 0.00 | 62 | 1018.2 |
| 20260502033559 | 39 | 264 | 2.6 | 3.5 | 0.00 | 0.00 | 0.00 | 61 | 1018.3 |
| 20260502033056 | 39 | 269 | 2.6 | 3.5 | 0.00 | 0.00 | 0.00 | 62 | 1018.2 |
| 20260502032552 | 40 | 251 | 2.6 | 2.6 | 0.00 | 0.00 | 0.00 | 59 | 1018.1 |
| 20260502032049 | 41 | 274 | 1.7 | 2.6 | 0.00 | 0.00 | 0.00 | 55 | 1018.3 |
| 20260502031547 | 42 | 261 | 2.6 | 2.6 | 0.00 | 0.00 | 0.00 | 51 | 1018.1 |
| 20260502031044 | 43 | 292 | 0.0 | 0.9 | 0.00 | 0.00 | 0.00 | 48 | 1018.1 |
| 20260502030543 | 44 | 268 | 0.9 | 1.7 | 0.00 | 0.00 | 0.00 | 45 | 1018.3 |
| 20260502030040 | 44 | 268 | 1.7 | 1.7 | 0.00 | 0.00 | 0.00 | 44 | 1018.2 |
| 20260502025538 | 45 | 271 | 1.7 | 1.7 | 0.00 | 0.00 | 0.00 | 43 | 1018.2 |
| 20260502025036 | 46 | 289 | 1.7 | 2.6 | 0.00 | 0.00 | 0.00 | 41 | 1018.1 |
| 20260502024533 | 46 | 293 | 2.6 | 3.5 | 0.00 | 0.00 | 0.00 | 41 | 1018.1 |
| 20260502024032 | 46 | 296 | 3.5 | 4.3 | 0.00 | 0.00 | 0.00 | 41 | 1018.2 |
| 20260502023528 | 45 | 294 | 3.5 | 4.3 | 0.00 | 0.00 | 0.00 | 44 | 1018.2 |
| 20260502023026 | 45 | 287 | 2.6 | 3.5 | 0.00 | 0.00 | 0.00 | 45 | 1018.1 |
| 20260502022522 | 46 | 297 | 2.6 | 3.5 | 0.00 | 0.00 | 0.00 | 43 | 1018.2 |
| 20260502022020 | 46 | 295 | 2.6 | 3.5 | 0.00 | 0.00 | 0.00 | 41 | 1018.1 |
| 20260502021517 | 46 | 285 | 2.6 | 3.5 | 0.00 | 0.00 | 0.00 | 43 | 1018.1 |
| 20260502021014 | 46 | 303 | 3.5 | 3.5 | 0.00 | 0.00 | 0.00 | 43 | 1017.7 |
| 20260502020512 | 46 | 287 | 2.6 | 3.5 | 0.00 | 0.00 | 0.00 | 40 | 1017.8 |
| 20260502020008 | 47 | 316 | 3.5 | 3.5 | 0.00 | 0.00 | 0.00 | 38 | 1017.8 |
| 20260502015506 | 47 | 293 | 1.7 | 3.5 | 0.00 | 0.00 | 0.00 | 38 | 1017.9 |
| 20260502015002 | 47 | 303 | 2.6 | 3.5 | 0.00 | 0.00 | 0.00 | 37 | 1017.6 |
| 20260502014459 | 47 | 313 | 3.5 | 3.5 | 0.00 | 0.00 | 0.00 | 38 | 1017.4 |
| 20260502013956 | 47 | 342 | 3.5 | 3.5 | 0.00 | 0.00 | 0.00 | 38 | 1017.6 |
| 20260502013451 | 47 | 334 | 2.6 | 3.5 | 0.00 | 0.00 | 0.00 | 39 | 1017.5 |
| 20260502012948 | 48 | 295 | 1.7 | 2.6 | 0.00 | 0.00 | 0.00 | 38 | 1017.4 |
| 20260502012446 | 48 | 328 | 3.5 | 4.3 | 0.00 | 0.00 | 0.00 | 38 | 1017.4 |
| 20260502011943 | 48 | 35 | 1.7 | 3.5 | 0.00 | 0.00 | 0.00 | 37 | 1017.3 |
| 20260502011439 | 49 | 339 | 1.7 | 2.6 | 0.00 | 0.00 | 0.00 | 37 | 1017.5 |
| 20260502010936 | 50 | 336 | 1.7 | 3.5 | 0.00 | 0.00 | 0.00 | 36 | 1017.3 |
| 20260502010433 | 50 | 323 | 1.7 | 3.5 | 0.00 | 0.00 | 0.00 | 36 | 1017.4 |
| 20260502005929 | 50 | 1 | 1.7 | 4.3 | 0.00 | 0.00 | 0.00 | 36 | 1017.2 |
| 20260502005427 | 50 | 0 | 3.5 | 3.5 | 0.00 | 0.00 | 0.00 | 35 | 1017.5 |
| 20260502004925 | 51 | 347 | 2.6 | 3.5 | 0.00 | 0.00 | 0.00 | 35 | 1017.3 |
| 20260502004421 | 51 | 309 | 3.5 | 7.0 | 0.00 | 0.00 | 0.00 | 34 | 1017.3 |
| 20260502003918 | 51 | 329 | 4.3 | 7.0 | 0.00 | 0.00 | 0.00 | 35 | 1017.4 |
| 20260502003415 | 51 | 357 | 2.6 | 6.1 | 0.00 | 0.00 | 0.00 | 34 | 1017.4 |
| 20260502002911 | 51 | 345 | 4.3 | 7.0 | 0.00 | 0.00 | 0.00 | 34 | 1017.3 |
| 20260502002409 | 51 | 296 | 2.6 | 5.2 | 0.00 | 0.00 | 0.00 | 34 | 1017.3 |
| 20260502001906 | 51 | 336 | 7.0 | 7.8 | 0.00 | 0.00 | 0.00 | 34 | 1017.1 |
| 20260502001404 | 51 | 306 | 3.5 | 6.1 | 0.00 | 0.00 | 0.00 | 34 | 1017.1 |
| 20260502000901 | 50 | 8 | 5.2 | 9.6 | 0.00 | 0.00 | 0.00 | 35 | 1017.4 |
| 20260502000402 | 51 | 347 | 7.8 | 8.7 | 0.00 | 0.00 | 0.00 | 34 | 1017.2 |
| 20260501235855 | 51 | 5 | 6.1 | 11.3 | 0.00 | 0.00 | 0.00 | 34 | 1017.4 |
| 20260501235351 | 51 | 5 | 2.6 | 8.7 | 0.00 | 0.00 | 0.00 | 34 | 1017.4 |
| 20260501234846 | 52 | 2 | 3.5 | 9.6 | 0.00 | 0.00 | 0.00 | 32 | 1017.4 |
| 20260501234343 | 52 | 13 | 1.7 | 8.7 | 0.00 | 0.00 | 0.00 | 34 | 1017.3 |
| 20260501233842 | 52 | 296 | 2.6 | 12.2 | 0.00 | 0.00 | 0.00 | 32 | 1017.2 |
| 20260501233339 | 53 | 281 | 4.3 | 9.6 | 0.00 | 0.00 | 0.00 | 33 | 1017.1 |
| 20260501232834 | 52 | 302 | 6.1 | 13.9 | 0.00 | 0.00 | 0.00 | 32 | 1017.2 |
| 20260501232332 | 52 | 282 | 8.7 | 11.3 | 0.00 | 0.00 | 0.00 | 32 | 1017.2 |
| 20260501231829 | 52 | 313 | 6.1 | 6.1 | 0.00 | 0.00 | 0.00 | 32 | 1017.2 |
| 20260501231327 | 52 | 358 | 3.5 | 6.1 | 0.00 | 0.00 | 0.00 | 33 | 1017.2 |
| 20260501230825 | 52 | 346 | 6.1 | 9.6 | 0.00 | 0.00 | 0.00 | 31 | 1017.1 |
| 20260501230324 | 53 | 7 | 5.2 | 7.8 | 0.00 | 0.00 | 0.00 | 32 | 1017.2 |
| 20260501225821 | 53 | 341 | 5.2 | 10.4 | 0.00 | 0.00 | 0.00 | 33 | 1017.3 |
| 20260501225319 | 53 | 13 | 9.6 | 12.2 | 0.00 | 0.00 | 0.00 | 32 | 1017.1 |
| 20260501224815 | 52 | 333 | 1.7 | 4.3 | 0.00 | 0.00 | 0.00 | 33 | 1017.2 |
| 20260501224312 | 52 | 345 | 7.0 | 13.0 | 0.00 | 0.00 | 0.00 | 33 | 1017.3 |
| 20260501223808 | 52 | 298 | 5.2 | 11.3 | 0.00 | 0.00 | 0.00 | 32 | 1017.2 |
| 20260501223304 | 52 | 338 | 5.2 | 9.6 | 0.00 | 0.00 | 0.00 | 32 | 1017.3 |
| 20260501222800 | 52 | 281 | 5.2 | 8.7 | 0.00 | 0.00 | 0.00 | 31 | 1017.4 |
| 20260501222258 | 51 | 9 | 6.1 | 7.8 | 0.00 | 0.00 | 0.00 | 35 | 1017.3 |
| 20260501221754 | 50 | 359 | 5.2 | 9.6 | 0.00 | 0.00 | 0.00 | 34 | 1017.2 |
| 20260501221252 | 51 | 5 | 5.2 | 9.6 | 0.00 | 0.00 | 0.00 | 34 | 1017.2 |
| 20260501220750 | 51 | 0 | 7.8 | 10.4 | 0.00 | 0.00 | 0.00 | 34 | 1017.2 |
| 20260501220246 | 53 | 350 | 7.0 | 13.0 | 0.00 | 0.00 | 0.00 | 33 | 1017.4 |
| 20260501215743 | 53 | 352 | 3.5 | 7.8 | 0.00 | 0.00 | 0.00 | 32 | 1017.3 |
| 20260501215238 | 53 | 83 | 2.6 | 8.7 | 0.00 | 0.00 | 0.00 | 33 | 1017.2 |
| 20260501214734 | 52 | 254 | 4.3 | 11.3 | 0.00 | 0.00 | 0.00 | 34 | 1017.3 |
| 20260501214230 | 51 | 309 | 7.8 | 13.0 | 0.00 | 0.00 | 0.00 | 33 | 1017.2 |
| 20260501213726 | 51 | 349 | 3.5 | 10.4 | 0.00 | 0.00 | 0.00 | 36 | 1017.1 |
| 20260501213223 | 52 | 329 | 6.1 | 13.0 | 0.00 | 0.00 | 0.00 | 37 | 1017.1 |
| 20260501212719 | 51 | 342 | 2.6 | 10.4 | 0.00 | 0.00 | 0.00 | 35 | 1017.3 |
| 20260501212216 | 51 | 0 | 4.3 | 10.4 | 0.00 | 0.00 | 0.00 | 36 | 1017.5 |
| 20260501211712 | 50 | 327 | 8.7 | 9.6 | 0.00 | 0.00 | 0.00 | 36 | 1017.2 |
| 20260501211210 | 50 | 12 | 7.0 | 8.7 | 0.00 | 0.00 | 0.00 | 36 | 1017.3 |
| 20260501210707 | 50 | 22 | 7.8 | 10.4 | 0.00 | 0.00 | 0.00 | 35 | 1017.4 |
| 20260501210203 | 50 | 16 | 3.5 | 7.0 | 0.00 | 0.00 | 0.00 | 34 | 1017.5 |
| 20260501205659 | 50 | 1 | 4.3 | 11.3 | 0.00 | 0.00 | 0.00 | 37 | 1017.6 |
| 20260501205157 | 51 | 26 | 6.1 | 8.7 | 0.00 | 0.00 | 0.00 | 35 | 1017.4 |
| 20260501204654 | 52 | 8 | 6.1 | 10.4 | 0.00 | 0.00 | 0.00 | 35 | 1017.7 |
| 20260501204149 | 50 | 335 | 11.3 | 15.6 | 0.00 | 0.00 | 0.00 | 37 | 1017.6 |
| 20260501203646 | 49 | 357 | 5.2 | 7.8 | 0.00 | 0.00 | 0.00 | 37 | 1017.7 |
| 20260501203144 | 50 | 327 | 5.2 | 11.3 | 0.00 | 0.00 | 0.00 | 36 | 1017.7 |
| 20260501202641 | 50 | 346 | 4.3 | 7.0 | 0.00 | 0.00 | 0.00 | 36 | 1017.6 |
| 20260501202137 | 49 | 12 | 4.3 | 7.8 | 0.00 | 0.00 | 0.00 | 37 | 1017.8 |
| 20260501201634 | 49 | 350 | 2.6 | 10.4 | 0.00 | 0.00 | 0.00 | 38 | 1017.6 |
| 20260501201131 | 50 | 12 | 8.7 | 13.0 | 0.00 | 0.00 | 0.00 | 37 | 1017.6 |
| 20260501200628 | 52 | 20 | 5.2 | 8.7 | 0.00 | 0.00 | 0.00 | 36 | 1017.8 |